createdAt,value
2023-03-03T04:52:57.749Z,31.10
2023-03-03T04:55:26.608Z,30.90
2023-03-03T04:57:55.542Z,30.90
2023-03-03T05:00:24.508Z,31.00
2023-03-03T05:02:53.750Z,31.00
2023-03-03T05:05:22.664Z,31.00
2023-03-03T05:07:51.540Z,31.00
2023-03-03T05:10:21.215Z,30.80
2023-03-03T05:12:50.408Z,30.60
2023-03-03T05:15:20.518Z,30.50
2023-03-03T05:17:49.578Z,30.50
2023-03-03T05:20:19.422Z,30.60
2023-03-03T05:22:48.356Z,30.70
2023-03-03T05:25:20.384Z,30.90
2023-03-03T05:27:49.394Z,31.10
2023-03-03T05:30:18.409Z,31.20
2023-03-03T05:32:47.942Z,31.30
2023-03-03T05:35:16.859Z,31.40
2023-03-03T05:37:50.149Z,31.60
2023-03-03T05:40:19.195Z,31.70
2023-03-03T05:42:50.545Z,31.80
2023-03-03T05:45:22.230Z,31.80
2023-03-03T05:47:51.972Z,31.90
2023-03-03T05:50:22.901Z,31.80
2023-03-03T05:52:56.021Z,31.80
2023-03-03T05:55:24.831Z,31.80
2023-03-03T05:57:53.757Z,31.80
2023-03-03T06:00:23.309Z,31.70
2023-03-03T06:02:52.224Z,31.60
2023-03-03T06:05:21.481Z,31.60
2023-03-03T06:07:50.515Z,31.70
2023-03-03T06:10:19.662Z,31.80
2023-03-03T06:12:48.546Z,31.90
2023-03-03T06:15:17.609Z,32.00
2023-03-03T06:17:46.538Z,32.10
2023-03-03T06:20:15.429Z,32.10
2023-03-03T06:22:44.352Z,32.20
2023-03-03T06:25:13.438Z,32.30
2023-03-03T06:27:42.292Z,32.30
2023-03-03T06:30:11.988Z,32.30
2023-03-03T06:32:41.321Z,32.20
2023-03-03T06:35:13.229Z,32.20
2023-03-03T06:37:42.305Z,32.20
2023-03-03T06:40:11.882Z,32.20
2023-03-03T06:42:43.147Z,32.30
2023-03-03T06:45:12.368Z,32.40
2023-03-03T06:47:41.256Z,32.50
2023-03-03T06:50:11.892Z,32.50
2023-03-03T06:52:41.037Z,32.60
2023-03-03T06:55:19.360Z,32.70
2023-03-03T06:57:48.371Z,32.70
2023-03-03T07:00:19.493Z,32.70
2023-03-03T07:02:53.030Z,32.80
2023-03-03T07:05:21.523Z,32.80
2023-03-03T07:07:50.420Z,32.70
2023-03-03T07:10:31.340Z,32.60
2023-03-03T07:13:15.979Z,32.60
2023-03-03T07:15:44.905Z,32.70
2023-03-03T07:18:35.424Z,32.80
2023-03-03T07:21:17.849Z,32.80
2023-03-03T07:23:49.620Z,32.90
2023-03-03T07:26:23.794Z,32.90
2023-03-03T07:29:01.965Z,32.90
2023-03-03T07:31:38.558Z,32.80
2023-03-03T07:34:21.106Z,32.70
2023-03-03T07:36:52.630Z,32.70
2023-03-03T07:39:48.729Z,32.70
2023-03-03T07:42:29.564Z,32.70
2023-03-03T07:45:03.502Z,32.70
2023-03-03T07:47:38.248Z,32.70
2023-03-03T07:50:22.676Z,32.70
2023-03-03T07:53:03.010Z,32.70
2023-03-03T07:55:43.794Z,32.70
2023-03-03T07:58:18.050Z,32.80
2023-03-03T08:01:23.766Z,32.70
2023-03-03T08:03:53.808Z,32.60
2023-03-03T08:06:37.699Z,32.60
2023-03-03T08:09:12.134Z,32.50
2023-03-03T08:11:54.886Z,32.40
2023-03-03T08:14:37.045Z,32.20
2023-03-03T08:17:25.171Z,32.00
2023-03-03T08:19:56.261Z,32.00
2023-03-03T08:22:37.292Z,32.10
2023-03-03T08:25:06.631Z,32.10
2023-03-03T08:27:35.480Z,32.10
2023-03-03T08:30:04.515Z,32.20
2023-03-03T08:32:33.450Z,32.30
2023-03-03T08:35:02.385Z,32.40
2023-03-03T08:37:31.258Z,32.50
2023-03-03T08:40:00.184Z,32.50
2023-03-03T08:42:31.227Z,32.40
2023-03-03T08:45:00.157Z,32.30
2023-03-03T08:47:44.286Z,32.30
2023-03-03T08:50:16.414Z,32.20
2023-03-03T08:52:45.694Z,32.10
2023-03-03T08:55:15.340Z,32.00
2023-03-03T08:57:44.606Z,32.00
2023-03-03T09:00:16.999Z,31.80
2023-03-03T09:02:46.028Z,31.80
2023-03-03T09:05:15.468Z,31.70
2023-03-03T09:07:47.796Z,31.60
2023-03-03T09:10:20.604Z,31.50
2023-03-03T09:12:50.030Z,31.40
2023-03-03T09:15:30.281Z,31.30
2023-03-03T09:18:11.653Z,31.20
2023-03-03T09:20:43.579Z,31.30
2023-03-03T09:23:35.863Z,31.30
2023-03-03T09:26:28.013Z,31.30
2023-03-03T09:29:01.177Z,31.20
2023-03-03T09:31:56.098Z,31.10
2023-03-03T09:34:32.635Z,31.00
2023-03-03T09:37:01.556Z,30.80
2023-03-03T09:39:32.800Z,30.80
2023-03-03T09:42:15.689Z,30.80
2023-03-03T09:45:06.144Z,30.80
2023-03-03T09:47:53.307Z,30.80
2023-03-03T09:50:53.039Z,30.70
2023-03-03T09:53:29.272Z,30.70
2023-03-03T09:56:10.230Z,30.70
2023-03-03T09:58:59.128Z,30.70
2023-03-03T10:02:04.423Z,30.60
2023-03-03T10:04:44.296Z,30.60
2023-03-03T10:07:25.419Z,30.50
2023-03-03T10:10:15.572Z,30.50
2023-03-03T10:13:15.093Z,30.40
2023-03-03T10:16:05.772Z,30.30
2023-03-03T10:18:57.579Z,30.20
2023-03-03T10:22:12.472Z,30.20
2023-03-03T10:24:54.003Z,30.10
2023-03-03T10:27:46.112Z,30.10
2023-03-03T10:30:48.511Z,30.10
2023-03-03T10:33:29.896Z,30.00
2023-03-03T10:36:24.929Z,30.00
2023-03-03T10:39:00.968Z,30.00
2023-03-03T10:41:56.909Z,30.00
2023-03-03T10:45:06.433Z,30.00
2023-03-03T10:47:59.072Z,29.90
2023-03-03T10:50:46.592Z,29.80
2023-03-03T10:53:43.570Z,29.80
